createdAt,value
2023-04-16T00:02:04.874Z,6.20
2023-04-16T00:04:35.102Z,9.60
2023-04-16T00:07:02.302Z,6.63
2023-04-16T00:09:34.450Z,5.80
2023-04-16T00:12:03.642Z,5.77
2023-04-16T00:14:33.062Z,8.63
2023-04-16T00:17:04.914Z,7.73
2023-04-16T00:19:34.472Z,4.47
2023-04-16T00:22:06.263Z,5.13
2023-04-16T00:24:40.870Z,4.57
2023-04-16T00:27:08.168Z,6.50
2023-04-16T00:29:35.276Z,7.30
2023-04-16T00:32:04.884Z,8.57
2023-04-16T00:34:34.443Z,7.43
2023-04-16T00:37:03.558Z,4.73
2023-04-16T00:39:32.936Z,3.03
2023-04-16T00:42:02.122Z,4.30
2023-04-16T00:44:35.960Z,5.97
2023-04-16T00:47:04.221Z,5.37
2023-04-16T00:49:33.899Z,6.07
2023-04-16T00:52:03.414Z,5.40
2023-04-16T00:54:33.244Z,5.67
2023-04-16T00:57:03.024Z,2.77
2023-04-16T00:59:30.204Z,3.73
2023-04-16T01:01:59.507Z,3.10
2023-04-16T01:04:27.192Z,3.87
2023-04-16T01:06:57.287Z,3.93
2023-04-16T01:09:24.399Z,4.67
2023-04-16T01:11:53.902Z,3.97
2023-04-16T01:14:21.047Z,5.27
2023-04-16T01:16:48.123Z,5.00
2023-04-16T01:19:20.087Z,2.90
2023-04-16T01:21:49.220Z,7.47
2023-04-16T01:24:21.010Z,6.90
2023-04-16T01:26:50.544Z,2.87
2023-04-16T01:29:17.688Z,6.43
2023-04-16T01:31:46.978Z,3.37
2023-04-16T01:34:14.255Z,5.20
2023-04-16T01:36:41.400Z,5.87
2023-04-16T01:39:14.140Z,2.53
2023-04-16T01:41:43.879Z,8.73
2023-04-16T01:44:13.242Z,6.07
2023-04-16T01:46:47.309Z,6.67
2023-04-16T01:49:16.859Z,6.27
2023-04-16T01:51:48.893Z,4.77
2023-04-16T01:54:20.874Z,4.30
2023-04-16T01:56:52.629Z,3.80
2023-04-16T01:59:21.944Z,6.93
2023-04-16T02:01:49.144Z,5.97
2023-04-16T02:04:16.666Z,5.93
2023-04-16T02:06:44.618Z,5.90
2023-04-16T02:09:11.860Z,6.43
2023-04-16T02:11:41.458Z,7.30
2023-04-16T02:14:08.777Z,4.63
2023-04-16T02:16:40.700Z,4.93
2023-04-16T02:19:12.441Z,4.40
2023-04-16T02:21:39.697Z,4.27
2023-04-16T02:24:09.075Z,5.07
2023-04-16T02:26:36.245Z,3.40
2023-04-16T02:29:06.008Z,4.73
2023-04-16T02:31:33.165Z,5.37
2023-04-16T02:34:03.344Z,3.43
2023-04-16T02:36:35.439Z,4.27
2023-04-16T02:39:02.636Z,2.70
2023-04-16T02:41:29.740Z,4.03
2023-04-16T02:44:01.483Z,4.07
2023-04-16T02:46:29.088Z,3.93
2023-04-16T02:49:00.976Z,5.43
2023-04-16T02:51:28.120Z,5.50
2023-04-16T02:53:57.416Z,4.17
2023-04-16T02:56:24.516Z,4.23
2023-04-16T02:58:53.997Z,5.73
2023-04-16T03:01:23.476Z,4.20
2023-04-16T03:03:55.289Z,2.77
2023-04-16T03:06:22.467Z,5.47
2023-04-16T03:08:51.963Z,4.97
2023-04-16T03:11:23.692Z,3.23
2023-04-16T03:13:55.623Z,5.00
2023-04-16T03:16:24.812Z,5.40
2023-04-16T03:18:54.587Z,3.33
2023-04-16T03:21:21.821Z,3.23
2023-04-16T03:23:53.316Z,4.30
2023-04-16T03:26:22.703Z,4.23
2023-04-16T03:28:49.859Z,5.07
2023-04-16T03:31:19.282Z,3.40
2023-04-16T03:33:51.802Z,4.27
2023-04-16T03:36:19.104Z,5.67
2023-04-16T03:38:46.239Z,4.80
2023-04-16T03:41:19.989Z,3.83
2023-04-16T03:43:49.573Z,3.33
2023-04-16T03:46:16.734Z,6.00
2023-04-16T03:48:46.855Z,5.43
2023-04-16T03:51:18.531Z,5.13
2023-04-16T03:53:45.991Z,5.97
2023-04-16T03:56:13.136Z,4.63
2023-04-16T03:58:40.268Z,4.40
2023-04-16T04:01:07.349Z,5.70
2023-04-16T04:03:36.705Z,6.57
2023-04-16T04:06:10.024Z,5.07
2023-04-16T04:08:41.822Z,6.50
2023-04-16T04:11:08.926Z,5.10
2023-04-16T04:13:38.514Z,7.00
2023-04-16T04:16:06.240Z,6.73
2023-04-16T04:18:38.524Z,6.67
2023-04-16T04:21:12.007Z,5.37
2023-04-16T04:23:42.478Z,6.97
2023-04-16T04:26:09.738Z,7.20
2023-04-16T04:28:39.232Z,4.80
2023-04-16T04:31:08.398Z,6.83
2023-04-16T04:33:37.763Z,7.43
2023-04-16T04:36:07.526Z,7.00
2023-04-16T04:38:34.755Z,7.07
2023-04-16T04:41:03.969Z,7.90
2023-04-16T04:43:33.227Z,7.67
2023-04-16T04:46:00.707Z,5.73
2023-04-16T04:48:28.298Z,7.97
2023-04-16T04:50:55.407Z,9.13
2023-04-16T04:53:22.570Z,7.90
2023-04-16T04:55:54.223Z,7.53
2023-04-16T04:58:28.925Z,8.23
2023-04-16T05:00:58.032Z,7.20
2023-04-16T05:03:25.230Z,5.73
2023-04-16T05:05:54.949Z,5.80
2023-04-16T05:08:24.299Z,5.90
2023-04-16T05:10:58.355Z,6.73
2023-04-16T05:13:29.750Z,7.37
2023-04-16T05:16:02.640Z,7.40
2023-04-16T05:18:36.373Z,6.63
2023-04-16T05:21:08.002Z,5.37
2023-04-16T05:23:37.676Z,6.13
2023-04-16T05:26:04.835Z,4.30
2023-04-16T05:28:33.999Z,6.37
2023-04-16T05:31:03.449Z,5.33
2023-04-16T05:33:33.189Z,6.87
2023-04-16T05:36:02.366Z,5.50
2023-04-16T05:38:29.464Z,4.80
2023-04-16T05:40:56.603Z,5.77
2023-04-16T05:43:26.064Z,5.30
2023-04-16T05:45:55.411Z,4.83
2023-04-16T05:48:27.192Z,6.77
2023-04-16T05:50:58.844Z,6.87
2023-04-16T05:53:28.175Z,6.03
2023-04-16T05:55:57.450Z,4.57
2023-04-16T05:58:24.618Z,5.47
2023-04-16T06:00:52.093Z,4.57
2023-04-16T06:03:21.921Z,5.20
2023-04-16T06:05:53.372Z,5.30
2023-04-16T06:08:20.583Z,6.47
2023-04-16T06:10:47.925Z,7.60
2023-04-16T06:13:19.955Z,4.20
2023-04-16T06:15:47.179Z,4.30
2023-04-16T06:18:21.227Z,6.03
2023-04-16T06:20:55.280Z,4.53
2023-04-16T06:23:29.420Z,6.40
2023-04-16T06:25:58.918Z,5.43
2023-04-16T06:28:28.335Z,4.53
2023-04-16T06:30:55.624Z,5.30
2023-04-16T06:33:27.585Z,5.33
2023-04-16T06:35:54.660Z,8.93
2023-04-16T06:38:24.006Z,6.30
2023-04-16T06:40:51.119Z,4.60
2023-04-16T06:43:18.347Z,4.53
2023-04-16T06:45:52.376Z,6.87
2023-04-16T06:48:24.529Z,4.23
2023-04-16T06:50:54.652Z,6.43
2023-04-16T06:53:21.899Z,5.37
2023-04-16T06:55:55.614Z,6.47
2023-04-16T06:58:25.012Z,6.13
2023-04-16T07:00:52.249Z,6.17
2023-04-16T07:03:19.438Z,3.93
2023-04-16T07:05:46.865Z,3.50
2023-04-16T07:08:13.995Z,4.43
2023-04-16T07:10:45.395Z,5.97
2023-04-16T07:13:15.004Z,6.37
2023-04-16T07:15:46.471Z,6.03
2023-04-16T07:18:15.908Z,7.97
2023-04-16T07:20:45.503Z,6.07
2023-04-16T07:23:14.909Z,5.53
2023-04-16T07:25:44.643Z,7.87
2023-04-16T07:28:16.584Z,4.73
2023-04-16T07:30:43.995Z,6.20
2023-04-16T07:33:13.631Z,8.13
2023-04-16T07:35:43.061Z,4.60
2023-04-16T07:38:10.327Z,7.00
2023-04-16T07:40:37.565Z,5.70
2023-04-16T07:43:04.658Z,7.67
2023-04-16T07:45:33.932Z,7.03
2023-04-16T07:48:05.982Z,6.30
2023-04-16T07:50:38.644Z,7.83
2023-04-16T07:53:08.269Z,6.73
2023-04-16T07:55:37.818Z,5.43
2023-04-16T07:58:09.811Z,7.17
2023-04-16T08:00:39.593Z,5.50
2023-04-16T08:03:09.269Z,6.53
2023-04-16T08:05:36.569Z,8.70
2023-04-16T08:08:06.204Z,8.90
2023-04-16T08:10:35.585Z,8.00
2023-04-16T08:13:07.325Z,8.00
2023-04-16T08:15:39.029Z,7.70
2023-04-16T08:18:15.549Z,8.33
2023-04-16T08:20:43.054Z,6.57
2023-04-16T08:23:10.182Z,8.30
2023-04-16T08:25:39.509Z,10.17
2023-04-16T08:28:06.655Z,10.93
2023-04-16T08:30:38.502Z,7.77
2023-04-16T08:33:08.179Z,8.83
2023-04-16T08:35:35.421Z,8.87
2023-04-16T08:38:07.513Z,10.10
2023-04-16T08:40:39.969Z,10.53
2023-04-16T08:43:13.852Z,10.20
2023-04-16T08:45:44.946Z,8.97
2023-04-16T08:48:12.296Z,8.40
2023-04-16T08:50:43.809Z,8.13
2023-04-16T08:53:22.946Z,9.10
2023-04-16T08:55:53.657Z,9.77
2023-04-16T08:58:22.812Z,8.67
2023-04-16T09:00:50.524Z,9.60
2023-04-16T09:03:20.058Z,10.33
2023-04-16T09:05:48.110Z,11.03
2023-04-16T09:08:18.580Z,10.73
2023-04-16T09:10:46.488Z,15.37
2023-04-16T09:13:17.085Z,11.20
2023-04-16T09:15:44.575Z,9.77
2023-04-16T09:18:14.956Z,9.47
2023-04-16T09:20:44.569Z,13.07
2023-04-16T09:23:14.166Z,13.63
2023-04-16T09:25:44.086Z,10.77
2023-04-16T09:28:13.278Z,12.83
2023-04-16T09:30:41.127Z,14.50
2023-04-16T09:33:26.477Z,15.03
2023-04-16T09:35:53.920Z,13.03
2023-04-16T09:38:21.517Z,12.80
2023-04-16T09:41:05.740Z,15.83
2023-04-16T09:43:32.844Z,13.93
2023-04-16T09:46:00.081Z,15.53
2023-04-16T09:48:34.208Z,13.57
2023-04-16T09:51:01.698Z,12.83
2023-04-16T09:53:30.709Z,13.60
2023-04-16T09:56:02.573Z,14.73
2023-04-16T09:58:29.763Z,15.07
2023-04-16T10:01:04.036Z,11.67
2023-04-16T10:03:35.744Z,15.63
2023-04-16T10:06:22.567Z,17.27
2023-04-16T10:08:58.186Z,11.53
2023-04-16T10:11:29.530Z,17.70
2023-04-16T10:14:01.298Z,15.77
2023-04-16T10:16:29.960Z,22.57
2023-04-16T10:19:01.777Z,17.77
2023-04-16T10:21:34.316Z,17.20
2023-04-16T10:24:04.886Z,16.23
2023-04-16T10:26:35.182Z,18.40
2023-04-16T10:29:09.868Z,17.43
2023-04-16T10:31:38.732Z,13.63
2023-04-16T10:34:07.659Z,16.40
2023-04-16T10:36:38.317Z,9.97
2023-04-16T10:39:17.217Z,18.30
2023-04-16T10:41:46.068Z,15.43
2023-04-16T10:44:21.635Z,14.40
2023-04-16T10:46:51.410Z,14.70
2023-04-16T10:49:26.382Z,17.80
2023-04-16T10:52:02.245Z,16.90
2023-04-16T10:54:31.122Z,15.20
2023-04-16T10:57:04.543Z,14.33
2023-04-16T10:59:34.879Z,18.20
2023-04-16T11:02:13.057Z,15.33
2023-04-16T11:04:44.028Z,15.37
2023-04-16T11:07:21.083Z,16.67
2023-04-16T11:09:54.300Z,17.40
2023-04-16T11:12:27.797Z,13.27
2023-04-16T11:15:07.219Z,13.43
2023-04-16T11:17:37.323Z,13.83
2023-04-16T11:20:19.130Z,13.93
2023-04-16T11:22:55.012Z,13.57
2023-04-16T11:25:24.426Z,10.53
2023-04-16T11:27:54.983Z,14.13
2023-04-16T11:30:35.885Z,18.63
2023-04-16T11:33:14.815Z,15.23
2023-04-16T11:35:43.376Z,19.60
2023-04-16T11:38:12.974Z,13.37
2023-04-16T11:40:45.099Z,16.60
2023-04-16T11:43:17.197Z,13.27
2023-04-16T11:45:59.503Z,16.73
2023-04-16T11:48:46.807Z,20.73
2023-04-16T11:51:14.358Z,18.17
2023-04-16T11:53:54.310Z,14.17
2023-04-16T11:56:29.474Z,17.30
2023-04-16T11:59:14.202Z,14.23
2023-04-16T12:01:50.172Z,14.13
2023-04-16T12:04:25.143Z,12.37
2023-04-16T12:07:09.663Z,12.90
2023-04-16T12:09:41.447Z,14.33
2023-04-16T12:12:30.689Z,16.53
2023-04-16T12:15:03.190Z,16.33
2023-04-16T12:17:32.379Z,11.90
2023-04-16T12:20:06.122Z,13.93
2023-04-16T12:22:42.135Z,10.37
2023-04-16T12:25:17.279Z,12.77
2023-04-16T12:27:50.698Z,12.50
2023-04-16T12:30:31.486Z,12.63
2023-04-16T12:33:19.306Z,13.30
2023-04-16T12:35:49.753Z,12.90
2023-04-16T12:38:17.399Z,17.17
2023-04-16T12:40:45.066Z,14.37
2023-04-16T12:43:14.918Z,15.50
2023-04-16T12:45:44.789Z,13.93
2023-04-16T12:48:11.995Z,15.67
2023-04-16T12:50:44.229Z,16.23
2023-04-16T12:53:12.070Z,12.17
2023-04-16T12:55:39.325Z,14.27
2023-04-16T12:58:14.098Z,13.77
2023-04-16T13:00:43.470Z,17.57
2023-04-16T13:03:16.215Z,17.50
2023-04-16T13:05:43.651Z,14.00
2023-04-16T13:08:15.500Z,16.00
2023-04-16T13:10:43.004Z,16.07
2023-04-16T13:13:12.474Z,11.97
2023-04-16T13:15:44.390Z,17.43
2023-04-16T13:18:16.197Z,13.33
2023-04-16T13:20:43.847Z,14.70
2023-04-16T13:23:15.829Z,13.23
2023-04-16T13:25:42.886Z,15.93
2023-04-16T13:28:10.069Z,13.20
2023-04-16T13:30:39.689Z,13.53
2023-04-16T13:33:06.928Z,14.40
2023-04-16T13:35:36.692Z,18.00
2023-04-16T13:38:10.657Z,17.00
2023-04-16T13:40:42.230Z,16.97
2023-04-16T13:43:13.704Z,19.13
2023-04-16T13:45:43.220Z,15.40
2023-04-16T13:48:10.935Z,12.60
2023-04-16T13:50:38.040Z,13.87
2023-04-16T13:53:05.479Z,16.20
2023-04-16T13:55:39.269Z,14.87
2023-04-16T13:58:13.646Z,17.80
2023-04-16T14:00:46.066Z,16.90
2023-04-16T14:03:15.990Z,16.73
2023-04-16T14:05:45.413Z,14.40
2023-04-16T14:08:14.775Z,14.40
2023-04-16T14:10:46.833Z,17.87
2023-04-16T14:13:14.179Z,14.73
2023-04-16T14:15:46.253Z,21.53
2023-04-16T14:18:13.397Z,16.73
2023-04-16T14:20:42.787Z,15.97
2023-04-16T14:23:12.565Z,17.20
2023-04-16T14:25:44.816Z,17.97
2023-04-16T14:28:13.056Z,20.87
2023-04-16T14:30:42.175Z,16.70
2023-04-16T14:33:09.425Z,19.67
2023-04-16T14:35:41.280Z,16.10
2023-04-16T14:38:10.887Z,20.20
2023-04-16T14:40:38.084Z,15.80
2023-04-16T14:43:07.880Z,21.33
2023-04-16T14:45:39.150Z,15.13
2023-04-16T14:48:08.959Z,19.27
2023-04-16T14:50:38.006Z,15.57
2023-04-16T14:53:07.869Z,13.63
2023-04-16T14:55:37.763Z,16.37
2023-04-16T14:58:05.091Z,17.27
2023-04-16T15:00:34.717Z,19.10
2023-04-16T15:03:04.069Z,14.77
2023-04-16T15:05:34.796Z,15.77
2023-04-16T15:08:02.343Z,16.70
2023-04-16T15:10:29.924Z,18.73
2023-04-16T15:12:57.059Z,16.83
2023-04-16T15:15:24.168Z,18.63
2023-04-16T15:17:53.730Z,15.37
2023-04-16T15:20:23.057Z,18.40
2023-04-16T15:22:52.480Z,14.97
2023-04-16T15:25:19.720Z,14.10
2023-04-16T15:27:49.852Z,20.17
2023-04-16T15:30:21.975Z,16.43
2023-04-16T15:32:51.612Z,16.43
2023-04-16T15:35:21.258Z,15.77
2023-04-16T15:37:48.959Z,15.53
2023-04-16T15:40:18.765Z,16.43
2023-04-16T15:42:45.950Z,15.63
2023-04-16T15:45:15.234Z,16.70
2023-04-16T15:47:45.206Z,14.83
2023-04-16T15:50:12.407Z,15.87
2023-04-16T15:52:42.416Z,13.97
2023-04-16T15:55:14.465Z,15.70
2023-04-16T15:57:46.764Z,15.53
2023-04-16T16:00:15.625Z,14.47
2023-04-16T16:02:49.409Z,14.07
2023-04-16T16:05:19.420Z,15.57
2023-04-16T16:07:46.852Z,13.73
2023-04-16T16:10:14.167Z,15.53
2023-04-16T16:12:43.769Z,17.10
2023-04-16T16:15:11.309Z,16.83
2023-04-16T16:17:39.152Z,15.80
2023-04-16T16:20:10.302Z,16.20
2023-04-16T16:22:38.338Z,12.93
2023-04-16T16:25:10.760Z,14.40
2023-04-16T16:27:37.915Z,12.00
2023-04-16T16:30:10.578Z,14.53
2023-04-16T16:32:44.298Z,12.03
2023-04-16T16:35:18.492Z,17.70
2023-04-16T16:37:45.664Z,12.43
2023-04-16T16:40:12.774Z,12.23
2023-04-16T16:42:42.837Z,12.23
2023-04-16T16:45:13.006Z,13.80
2023-04-16T16:47:40.301Z,17.00
2023-04-16T16:50:11.575Z,12.60
2023-04-16T16:52:41.079Z,12.87
2023-04-16T16:55:13.716Z,12.50
2023-04-16T16:57:44.151Z,18.03
2023-04-16T17:00:12.055Z,14.43
2023-04-16T17:02:44.486Z,12.97
2023-04-16T17:05:16.627Z,15.37
2023-04-16T17:07:43.821Z,14.37
2023-04-16T17:10:19.886Z,14.93
2023-04-16T17:12:51.089Z,16.40
2023-04-16T17:15:21.921Z,14.23
2023-04-16T17:17:51.823Z,14.97
2023-04-16T17:20:21.540Z,13.03
2023-04-16T17:22:48.712Z,12.53
2023-04-16T17:25:16.066Z,13.67
2023-04-16T17:27:45.834Z,16.43
2023-04-16T17:30:15.390Z,14.13
2023-04-16T17:32:42.585Z,15.43
2023-04-16T17:35:10.545Z,13.03
2023-04-16T17:37:42.190Z,20.48
2023-04-16T17:40:15.599Z,14.13
2023-04-16T17:42:42.779Z,14.00
2023-04-16T17:45:13.338Z,15.67
2023-04-16T17:47:44.302Z,15.70
2023-04-16T17:50:13.815Z,12.67
2023-04-16T17:52:41.206Z,13.70
2023-04-16T17:55:13.894Z,14.47
2023-04-16T17:57:45.468Z,14.07
2023-04-16T18:00:20.092Z,16.20
2023-04-16T18:02:49.539Z,15.43
2023-04-16T18:05:16.748Z,14.40
2023-04-16T18:07:48.361Z,17.03
2023-04-16T18:10:22.487Z,17.43
2023-04-16T18:12:52.178Z,15.20
2023-04-16T18:15:19.310Z,15.20
2023-04-16T18:17:46.822Z,15.47
2023-04-16T18:20:16.833Z,18.70
2023-04-16T18:22:46.499Z,17.27
2023-04-16T18:25:13.743Z,17.10
2023-04-16T18:27:40.881Z,14.93
2023-04-16T18:32:38.533Z,17.03
2023-04-16T18:35:07.641Z,20.27
2023-04-16T18:37:34.835Z,14.83
2023-04-16T18:40:02.105Z,19.67
2023-04-16T18:42:31.924Z,20.73
2023-04-16T18:45:03.828Z,17.33
2023-04-16T18:47:34.807Z,18.47
2023-04-16T18:50:04.471Z,16.05
2023-04-16T18:52:34.622Z,16.30
2023-04-16T18:55:04.388Z,17.27
2023-04-16T18:57:33.815Z,16.57
2023-04-16T19:00:08.980Z,18.40
2023-04-16T19:02:41.664Z,17.07
2023-04-16T19:05:13.978Z,15.93
2023-04-16T19:07:43.561Z,16.33
2023-04-16T19:10:17.981Z,15.67
2023-04-16T19:12:47.510Z,19.13
2023-04-16T19:15:19.358Z,16.20
2023-04-16T19:17:51.316Z,14.57
2023-04-16T19:20:21.046Z,18.07
2023-04-16T19:22:48.176Z,16.30
2023-04-16T19:25:20.335Z,15.77
2023-04-16T19:27:49.723Z,16.50
2023-04-16T19:30:16.993Z,14.77
2023-04-16T19:32:44.193Z,15.80
2023-04-16T19:35:11.495Z,16.70
2023-04-16T19:37:38.691Z,16.20
2023-04-16T19:40:08.634Z,17.63
2023-04-16T19:42:38.496Z,16.87
2023-04-16T19:45:08.519Z,19.00
2023-04-16T19:47:43.181Z,19.73
2023-04-16T19:50:15.988Z,17.27
2023-04-16T19:52:43.156Z,17.40
2023-04-16T19:55:12.710Z,17.43
2023-04-16T19:57:39.755Z,17.30
2023-04-16T20:00:36.806Z,17.47
2023-04-16T20:03:06.425Z,18.20
2023-04-16T20:05:35.982Z,17.77
2023-04-16T20:08:05.487Z,17.73
2023-04-16T20:10:37.809Z,17.30
2023-04-16T20:13:06.618Z,17.03
2023-04-16T20:15:33.738Z,20.93
2023-04-16T20:18:03.330Z,17.03
2023-04-16T20:20:33.894Z,19.47
2023-04-16T20:23:01.112Z,20.03
2023-04-16T20:25:30.785Z,18.73
2023-04-16T20:28:00.375Z,21.17
2023-04-16T20:30:30.153Z,18.63
2023-04-16T20:32:57.328Z,18.60
2023-04-16T20:35:27.155Z,17.07
2023-04-16T20:37:56.329Z,21.50
2023-04-16T20:40:31.331Z,20.33
2023-04-16T20:43:01.956Z,17.93
2023-04-16T20:45:32.239Z,21.07
2023-04-16T20:48:04.211Z,20.50
2023-04-16T20:50:33.888Z,19.17
2023-04-16T20:53:01.147Z,19.60
2023-04-16T20:55:28.271Z,19.63
2023-04-16T20:57:57.487Z,24.43
2023-04-16T21:00:24.663Z,18.90
2023-04-16T21:02:54.176Z,19.37
2023-04-16T21:05:21.627Z,19.57
2023-04-16T21:07:50.967Z,22.97
2023-04-16T21:10:20.316Z,20.23
2023-04-16T21:12:49.670Z,23.47
2023-04-16T21:15:16.894Z,22.23
2023-04-16T21:17:46.735Z,21.80
2023-04-16T21:20:14.026Z,25.17
2023-04-16T21:22:43.550Z,24.80
2023-04-16T21:25:10.768Z,23.87
2023-04-16T21:27:40.445Z,20.63
2023-04-16T21:30:10.047Z,24.07
2023-04-16T21:32:42.035Z,20.20
2023-04-16T21:35:14.929Z,19.07
2023-04-16T21:37:42.089Z,20.93
2023-04-16T21:40:13.713Z,23.87
2023-04-16T21:42:42.402Z,22.80
2023-04-16T21:45:12.400Z,20.33
2023-04-16T21:47:42.159Z,18.30
2023-04-16T21:50:11.988Z,22.63
2023-04-16T21:52:46.629Z,22.53
2023-04-16T21:55:19.223Z,20.50
2023-04-16T21:57:46.308Z,24.17
2023-04-16T22:00:18.403Z,23.10
2023-04-16T22:02:45.620Z,21.83
2023-04-16T22:05:15.134Z,23.93
2023-04-16T22:07:44.523Z,21.43
2023-04-16T22:10:15.120Z,23.87
2023-04-16T22:12:44.783Z,26.53
2023-04-16T22:15:13.416Z,22.70
2023-04-16T22:17:41.023Z,22.43
2023-04-16T22:20:17.138Z,20.37
2023-04-16T22:22:46.564Z,29.67
2023-04-16T22:25:13.993Z,24.73
2023-04-16T22:27:41.525Z,23.33
2023-04-16T22:30:11.565Z,22.40
2023-04-16T22:32:40.970Z,25.43
2023-04-16T22:35:12.735Z,21.97
2023-04-16T22:37:46.563Z,23.93
2023-04-16T22:40:16.675Z,27.20
2023-04-16T22:42:43.783Z,24.20
2023-04-16T22:45:13.458Z,26.10
2023-04-16T22:47:43.353Z,25.57
2023-04-16T22:50:13.210Z,27.67
2023-04-16T22:52:42.871Z,24.67
2023-04-16T22:55:10.143Z,23.23
2023-04-16T22:57:37.262Z,29.17
2023-04-16T23:00:07.734Z,23.80
2023-04-16T23:02:37.301Z,27.13
2023-04-16T23:05:09.840Z,25.07
2023-04-16T23:07:36.979Z,28.33
2023-04-16T23:10:04.387Z,27.87
2023-04-16T23:12:34.040Z,28.80
2023-04-16T23:15:03.258Z,28.47
2023-04-16T23:17:30.599Z,29.47
2023-04-16T23:20:02.847Z,28.10
2023-04-16T23:22:29.973Z,29.60
2023-04-16T23:24:59.538Z,30.23
2023-04-16T23:27:29.342Z,27.13
2023-04-16T23:29:58.887Z,28.30
2023-04-16T23:32:28.503Z,27.30
2023-04-16T23:35:01.215Z,30.03
2023-04-16T23:37:30.410Z,29.90
2023-04-16T23:39:57.474Z,30.40
2023-04-16T23:42:26.927Z,27.57
2023-04-16T23:44:54.039Z,26.97
2023-04-16T23:47:23.726Z,30.50
2023-04-16T23:49:51.094Z,31.67
2023-04-16T23:52:20.846Z,30.23
2023-04-16T23:54:50.084Z,28.90
2023-04-16T23:57:17.186Z,30.13
2023-04-16T23:59:46.856Z,32.33
